sensor_id;sensor_type;location;lat;lon;timestamp;pressure;altitude;pressure_sealevel;temperature;humidity
70833;BME280;71099;59.528;17.886;2023-07-31T00:01:30;99868.16;;;16.00;80.28
70833;BME280;71099;59.528;17.886;2023-07-31T00:03:55;99864.16;;;15.97;80.44
70833;BME280;71099;59.528;17.886;2023-07-31T00:06:21;99865.34;;;15.95;80.62
70833;BME280;71099;59.528;17.886;2023-07-31T00:08:46;99871.16;;;15.90;80.77
70833;BME280;71099;59.528;17.886;2023-07-31T00:11:12;99873.34;;;15.87;80.83
70833;BME280;71099;59.528;17.886;2023-07-31T00:13:37;99862.53;;;15.83;80.86
70833;BME280;71099;59.528;17.886;2023-07-31T00:16:02;99861.50;;;15.78;80.67
70833;BME280;71099;59.528;17.886;2023-07-31T00:18:28;99860.50;;;15.72;81.35
70833;BME280;71099;59.528;17.886;2023-07-31T00:20:53;99863.28;;;15.71;81.01
70833;BME280;71099;59.528;17.886;2023-07-31T00:23:19;99865.28;;;15.69;81.11
70833;BME280;71099;59.528;17.886;2023-07-31T00:25:44;99859.50;;;15.67;80.98
70833;BME280;71099;59.528;17.886;2023-07-31T00:28:10;99854.66;;;15.63;81.05
70833;BME280;71099;59.528;17.886;2023-07-31T00:30:35;99859.44;;;15.60;80.86
70833;BME280;71099;59.528;17.886;2023-07-31T00:33:00;99857.63;;;15.54;81.27
70833;BME280;71099;59.528;17.886;2023-07-31T00:35:26;99856.03;;;15.53;81.31
70833;BME280;71099;59.528;17.886;2023-07-31T00:37:51;99848.44;;;15.51;81.43
70833;BME280;71099;59.528;17.886;2023-07-31T00:40:17;99859.81;;;15.50;81.72
70833;BME280;71099;59.528;17.886;2023-07-31T00:42:42;99848.00;;;15.48;81.80
70833;BME280;71099;59.528;17.886;2023-07-31T00:45:08;99855.97;;;15.46;81.98
70833;BME280;71099;59.528;17.886;2023-07-31T00:47:33;99851.97;;;15.44;81.87
70833;BME280;71099;59.528;17.886;2023-07-31T00:49:59;99858.34;;;15.41;82.15
70833;BME280;71099;59.528;17.886;2023-07-31T00:52:24;99858.34;;;15.41;82.15
70833;BME280;71099;59.528;17.886;2023-07-31T00:54:50;99853.53;;;15.38;82.38
70833;BME280;71099;59.528;17.886;2023-07-31T00:57:15;99863.94;;;15.38;82.68
70833;BME280;71099;59.528;17.886;2023-07-31T00:59:41;99857.13;;;15.37;82.58
70833;BME280;71099;59.528;17.886;2023-07-31T01:02:06;99862.31;;;15.37;82.81
70833;BME280;71099;59.528;17.886;2023-07-31T01:04:32;99860.75;;;15.36;82.92
70833;BME280;71099;59.528;17.886;2023-07-31T01:09:58;99856.91;;;15.32;83.10
70833;BME280;71099;59.528;17.886;2023-07-31T01:12:26;99858.31;;;15.28;82.97
70833;BME280;71099;59.528;17.886;2023-07-31T01:15:05;99849.69;;;15.28;83.05
70833;BME280;71099;59.528;17.886;2023-07-31T01:17:31;99853.50;;;15.25;83.28
70833;BME280;71099;59.528;17.886;2023-07-31T01:19:59;99851.06;;;15.24;83.08
70833;BME280;71099;59.528;17.886;2023-07-31T01:25:41;99857.47;;;15.21;83.14
70833;BME280;71099;59.528;17.886;2023-07-31T01:28:13;99862.47;;;15.23;83.33
70833;BME280;71099;59.528;17.886;2023-07-31T01:30:43;99848.06;;;15.20;83.28
70833;BME280;71099;59.528;17.886;2023-07-31T01:33:10;99842.88;;;15.20;83.10
70833;BME280;71099;59.528;17.886;2023-07-31T01:35:36;99849.03;;;15.19;83.19
70833;BME280;71099;59.528;17.886;2023-07-31T01:38:03;99852.66;;;15.18;83.10
70833;BME280;71099;59.528;17.886;2023-07-31T01:40:29;99849.44;;;15.16;83.21
70833;BME280;71099;59.528;17.886;2023-07-31T01:42:55;99850.44;;;15.15;83.27
70833;BME280;71099;59.528;17.886;2023-07-31T01:45:20;99849.22;;;15.11;83.31
70833;BME280;71099;59.528;17.886;2023-07-31T01:47:46;99853.22;;;15.13;83.15
70833;BME280;71099;59.528;17.886;2023-07-31T01:50:11;99845.81;;;15.10;83.27
70833;BME280;71099;59.528;17.886;2023-07-31T01:52:37;99849.00;;;15.06;83.46
70833;BME280;71099;59.528;17.886;2023-07-31T01:55:02;99848.41;;;15.04;83.51
70833;BME280;71099;59.528;17.886;2023-07-31T01:57:28;99849.38;;;15.03;83.27
70833;BME280;71099;59.528;17.886;2023-07-31T01:59:53;99838.75;;;14.98;83.36
70833;BME280;71099;59.528;17.886;2023-07-31T02:02:19;99840.38;;;14.99;83.41
70833;BME280;71099;59.528;17.886;2023-07-31T02:04:45;99845.56;;;14.99;83.29
70833;BME280;71099;59.528;17.886;2023-07-31T02:07:10;99845.72;;;14.97;82.98
70833;BME280;71099;59.528;17.886;2023-07-31T02:09:36;99843.34;;;14.96;82.88
70833;BME280;71099;59.528;17.886;2023-07-31T02:12:01;99844.16;;;14.96;83.09
70833;BME280;71099;59.528;17.886;2023-07-31T02:14:27;99842.94;;;14.92;83.10
70833;BME280;71099;59.528;17.886;2023-07-31T02:16:52;99841.13;;;14.93;83.17
70833;BME280;71099;59.528;17.886;2023-07-31T02:19:18;99843.91;;;14.91;83.17
70833;BME280;71099;59.528;17.886;2023-07-31T02:21:43;99839.69;;;14.90;83.11
70833;BME280;71099;59.528;17.886;2023-07-31T02:24:08;99838.13;;;14.89;83.11
70833;BME280;71099;59.528;17.886;2023-07-31T02:26:34;99835.69;;;14.88;83.63
70833;BME280;71099;59.528;17.886;2023-07-31T02:28:59;99824.72;;;14.86;83.63
70833;BME280;71099;59.528;17.886;2023-07-31T02:31:25;99826.50;;;14.85;83.91
70833;BME280;71099;59.528;17.886;2023-07-31T02:33:50;99829.53;;;14.89;84.16
70833;BME280;71099;59.528;17.886;2023-07-31T02:36:15;99826.91;;;14.89;84.15
70833;BME280;71099;59.528;17.886;2023-07-31T02:38:41;99823.31;;;14.90;84.17
70833;BME280;71099;59.528;17.886;2023-07-31T02:41:06;99829.31;;;14.90;84.26
70833;BME280;71099;59.528;17.886;2023-07-31T02:43:32;99830.13;;;14.91;84.41
70833;BME280;71099;59.528;17.886;2023-07-31T02:45:59;99829.94;;;14.92;84.40
70833;BME280;71099;59.528;17.886;2023-07-31T02:48:24;99822.94;;;14.93;84.63
70833;BME280;71099;59.528;17.886;2023-07-31T02:50:50;99830.53;;;14.94;84.60
70833;BME280;71099;59.528;17.886;2023-07-31T02:53:15;99832.31;;;14.94;84.57
70833;BME280;71099;59.528;17.886;2023-07-31T02:55:41;99821.94;;;14.94;84.67
70833;BME280;71099;59.528;17.886;2023-07-31T02:58:06;99827.13;;;14.94;84.79
70833;BME280;71099;59.528;17.886;2023-07-31T03:00:31;99817.75;;;14.93;84.85
70833;BME280;71099;59.528;17.886;2023-07-31T03:02:57;99821.34;;;14.92;85.15
70833;BME280;71099;59.528;17.886;2023-07-31T03:05:22;99814.75;;;14.89;85.55
70833;BME280;71099;59.528;17.886;2023-07-31T03:07:48;99825.34;;;14.94;85.48
70833;BME280;71099;59.528;17.886;2023-07-31T03:10:13;99819.97;;;14.96;85.58
70833;BME280;71099;59.528;17.886;2023-07-31T03:12:40;99823.38;;;14.96;85.65
70833;BME280;71099;59.528;17.886;2023-07-31T03:15:05;99818.16;;;14.96;85.86
70833;BME280;71099;59.528;17.886;2023-07-31T03:17:31;99818.97;;;14.97;85.97
70833;BME280;71099;59.528;17.886;2023-07-31T03:19:57;99818.16;;;14.96;86.08
70833;BME280;71099;59.528;17.886;2023-07-31T03:22:22;99816.56;;;14.95;86.20
70833;BME280;71099;59.528;17.886;2023-07-31T03:24:47;99813.53;;;14.92;86.29
70833;BME280;71099;59.528;17.886;2023-07-31T03:27:13;99823.13;;;14.91;86.36
70833;BME280;71099;59.528;17.886;2023-07-31T03:29:38;99819.34;;;14.94;86.59
70833;BME280;71099;59.528;17.886;2023-07-31T03:32:04;99818.34;;;14.95;86.75
70833;BME280;71099;59.528;17.886;2023-07-31T03:34:29;99826.78;;;14.97;86.61
70833;BME280;71099;59.528;17.886;2023-07-31T03:36:57;99824.78;;;14.99;86.70
70833;BME280;71099;59.528;17.886;2023-07-31T03:39:22;99825.75;;;14.98;86.46
70833;BME280;71099;59.528;17.886;2023-07-31T03:41:48;99821.19;;;15.00;86.51
70833;BME280;71099;59.528;17.886;2023-07-31T03:44:13;99826.97;;;15.02;86.55
70833;BME280;71099;59.528;17.886;2023-07-31T03:46:38;99821.38;;;15.05;86.59
70833;BME280;71099;59.528;17.886;2023-07-31T03:49:04;99821.00;;;15.08;86.57
70833;BME280;71099;59.528;17.886;2023-07-31T03:51:29;99823.03;;;15.12;86.68
70833;BME280;71099;59.528;17.886;2023-07-31T03:53:55;99820.25;;;15.14;86.70
70833;BME280;71099;59.528;17.886;2023-07-31T03:56:20;99823.84;;;15.13;87.03
70833;BME280;71099;59.528;17.886;2023-07-31T03:58:46;99810.25;;;15.11;87.19
70833;BME280;71099;59.528;17.886;2023-07-31T04:01:11;99816.44;;;15.16;87.49
70833;BME280;71099;59.528;17.886;2023-07-31T04:03:37;99813.47;;;15.20;87.62
70833;BME280;71099;59.528;17.886;2023-07-31T04:06:02;99818.09;;;15.24;87.59
70833;BME280;71099;59.528;17.886;2023-07-31T04:08:28;99807.91;;;15.29;87.48
70833;BME280;71099;59.528;17.886;2023-07-31T04:10:53;99813.53;;;15.33;87.61
70833;BME280;71099;59.528;17.886;2023-07-31T04:13:18;99811.34;;;15.36;87.44
70833;BME280;71099;59.528;17.886;2023-07-31T04:15:48;99815.16;;;15.40;87.47
70833;BME280;71099;59.528;17.886;2023-07-31T04:18:15;99809.56;;;15.43;87.26
70833;BME280;71099;59.528;17.886;2023-07-31T04:20:40;99801.13;;;15.41;87.09
70833;BME280;71099;59.528;17.886;2023-07-31T04:23:05;99810.97;;;15.46;87.16
70833;BME280;71099;59.528;17.886;2023-07-31T04:25:31;99807.56;;;15.45;87.40
70833;BME280;71099;59.528;17.886;2023-07-31T04:27:56;99810.78;;;15.47;87.52
70833;BME280;71099;59.528;17.886;2023-07-31T04:30:22;99814.63;;;15.51;87.52
70833;BME280;71099;59.528;17.886;2023-07-31T04:32:47;99814.41;;;15.53;87.62
70833;BME280;71099;59.528;17.886;2023-07-31T04:35:13;99811.81;;;15.53;87.62
70833;BME280;71099;59.528;17.886;2023-07-31T04:37:38;99804.81;;;15.53;87.55
70833;BME280;71099;59.528;17.886;2023-07-31T04:40:04;99803.19;;;15.52;87.87
70833;BME280;71099;59.528;17.886;2023-07-31T04:42:29;99805.56;;;15.47;88.20
70833;BME280;71099;59.528;17.886;2023-07-31T04:44:54;99806.56;;;15.46;88.40
70833;BME280;71099;59.528;17.886;2023-07-31T04:47:20;99800.19;;;15.49;88.28
70833;BME280;71099;59.528;17.886;2023-07-31T04:49:45;99800.38;;;15.47;88.34
70833;BME280;71099;59.528;17.886;2023-07-31T04:52:11;99800.56;;;15.46;88.23
70833;BME280;71099;59.528;17.886;2023-07-31T04:54:36;99797.16;;;15.45;88.44
70833;BME280;71099;59.528;17.886;2023-07-31T04:57:02;99793.56;;;15.46;88.75
70833;BME280;71099;59.528;17.886;2023-07-31T04:59:27;99789.16;;;15.40;89.05
70833;BME280;71099;59.528;17.886;2023-07-31T05:01:53;99789.53;;;15.37;89.73
70833;BME280;71099;59.528;17.886;2023-07-31T05:04:18;99783.97;;;15.40;89.81
70833;BME280;71099;59.528;17.886;2023-07-31T05:06:43;99791.78;;;15.47;90.03
70833;BME280;71099;59.528;17.886;2023-07-31T05:09:09;99784.41;;;15.50;89.78
70833;BME280;71099;59.528;17.886;2023-07-31T05:11:35;99790.00;;;15.54;89.66
70833;BME280;71099;59.528;17.886;2023-07-31T05:14:01;99787.00;;;15.57;89.70
70833;BME280;71099;59.528;17.886;2023-07-31T05:16:26;99804.03;;;15.59;89.85
70833;BME280;71099;59.528;17.886;2023-07-31T05:18:51;99798.84;;;15.66;89.94
70833;BME280;71099;59.528;17.886;2023-07-31T05:21:17;99799.84;;;15.72;90.05
70833;BME280;71099;59.528;17.886;2023-07-31T05:23:42;99800.06;;;15.77;90.13
70833;BME280;71099;59.528;17.886;2023-07-31T05:26:08;99805.28;;;15.83;90.06
70833;BME280;71099;59.528;17.886;2023-07-31T05:28:35;99808.88;;;15.89;90.12
70833;BME280;71099;59.528;17.886;2023-07-31T05:31:03;99806.09;;;15.97;90.11
70833;BME280;71099;59.528;17.886;2023-07-31T05:33:28;99807.31;;;16.01;90.07
70833;BME280;71099;59.528;17.886;2023-07-31T05:35:54;99804.91;;;16.06;89.73
70833;BME280;71099;59.528;17.886;2023-07-31T05:38:19;99800.69;;;16.11;89.81
70833;BME280;71099;59.528;17.886;2023-07-31T05:40:45;99801.72;;;16.17;89.51
70833;BME280;71099;59.528;17.886;2023-07-31T05:43:10;99796.09;;;16.20;89.31
70833;BME280;71099;59.528;17.886;2023-07-31T05:45:35;99788.50;;;16.25;89.02
70833;BME280;71099;59.528;17.886;2023-07-31T05:48:02;99783.28;;;16.25;89.08
70833;BME280;71099;59.528;17.886;2023-07-31T05:50:28;99778.47;;;16.29;89.27
70833;BME280;71099;59.528;17.886;2023-07-31T05:52:53;99784.47;;;16.29;89.01
70833;BME280;71099;59.528;17.886;2023-07-31T05:55:18;99781.28;;;16.27;89.04
70833;BME280;71099;59.528;17.886;2023-07-31T05:57:44;99785.66;;;16.33;89.12
70833;BME280;71099;59.528;17.886;2023-07-31T06:00:11;99783.69;;;16.35;89.10
70833;BME280;71099;59.528;17.886;2023-07-31T06:02:37;99786.44;;;16.40;89.16
70833;BME280;71099;59.528;17.886;2023-07-31T06:05:04;99785.69;;;16.40;89.34
70833;BME280;71099;59.528;17.886;2023-07-31T06:07:31;99776.81;;;16.47;88.77
70833;BME280;71099;59.528;17.886;2023-07-31T06:09:56;99776.63;;;16.55;88.22
70833;BME280;71099;59.528;17.886;2023-07-31T06:12:27;99784.44;;;16.55;88.11
70833;BME280;71099;59.528;17.886;2023-07-31T06:14:52;99784.06;;;16.45;88.58
70833;BME280;71099;59.528;17.886;2023-07-31T06:17:18;99786.47;;;16.47;88.83
70833;BME280;71099;59.528;17.886;2023-07-31T06:19:43;99792.28;;;16.42;88.53
70833;BME280;71099;59.528;17.886;2023-07-31T06:22:09;99795.25;;;16.52;88.39
70833;BME280;71099;59.528;17.886;2023-07-31T06:24:34;99795.66;;;16.63;88.01
70833;BME280;71099;59.528;17.886;2023-07-31T06:27:00;99806.88;;;16.70;87.89
70833;BME280;71099;59.528;17.886;2023-07-31T06:29:25;99820.50;;;16.78;87.79
70833;BME280;71099;59.528;17.886;2023-07-31T06:31:50;99828.31;;;16.85;87.40
70833;BME280;71099;59.528;17.886;2023-07-31T06:34:16;99824.91;;;16.91;87.26
70833;BME280;71099;59.528;17.886;2023-07-31T06:36:42;99833.91;;;16.95;87.34
70833;BME280;71099;59.528;17.886;2023-07-31T06:39:07;99831.09;;;16.90;87.14
70833;BME280;71099;59.528;17.886;2023-07-31T06:41:34;99839.13;;;16.95;87.08
70833;BME280;71099;59.528;17.886;2023-07-31T06:43:59;99836.09;;;16.98;86.74
70833;BME280;71099;59.528;17.886;2023-07-31T06:46:25;99837.50;;;16.94;86.49
70833;BME280;71099;59.528;17.886;2023-07-31T06:48:50;99840.94;;;16.94;86.63
70833;BME280;71099;59.528;17.886;2023-07-31T06:51:16;99840.50;;;16.97;86.62
70833;BME280;71099;59.528;17.886;2023-07-31T06:53:41;99833.50;;;16.98;86.91
70833;BME280;71099;59.528;17.886;2023-07-31T06:56:07;99834.50;;;16.97;86.54
70833;BME280;71099;59.528;17.886;2023-07-31T06:58:32;99839.13;;;16.95;86.40
70833;BME280;71099;59.528;17.886;2023-07-31T07:00:57;99832.91;;;16.89;86.04
70833;BME280;71099;59.528;17.886;2023-07-31T07:03:23;99825.25;;;17.01;86.00
70833;BME280;71099;59.528;17.886;2023-07-31T07:05:48;99826.44;;;17.12;86.04
70833;BME280;71099;59.528;17.886;2023-07-31T07:08:14;99826.84;;;17.08;85.87
70833;BME280;71099;59.528;17.886;2023-07-31T07:10:39;99826.81;;;17.15;85.59
70833;BME280;71099;59.528;17.886;2023-07-31T07:13:04;99829.84;;;17.12;85.31
70833;BME280;71099;59.528;17.886;2023-07-31T07:15:30;99824.81;;;17.10;85.33
70833;BME280;71099;59.528;17.886;2023-07-31T07:17:55;99824.06;;;16.97;82.93
70833;BME280;71099;59.528;17.886;2023-07-31T07:20:21;99827.06;;;17.00;81.77
70833;BME280;71099;59.528;17.886;2023-07-31T07:22:46;99828.06;;;17.06;80.94
70833;BME280;71099;59.528;17.886;2023-07-31T07:25:12;99825.19;;;17.14;80.54
70833;BME280;71099;59.528;17.886;2023-07-31T07:27:37;99825.19;;;17.14;80.59
70833;BME280;71099;59.528;17.886;2023-07-31T07:30:03;99816.19;;;17.17;80.91
70833;BME280;71099;59.528;17.886;2023-07-31T07:32:28;99807.22;;;17.06;80.46
70833;BME280;71099;59.528;17.886;2023-07-31T07:34:55;99809.81;;;17.06;80.21
70833;BME280;71099;59.528;17.886;2023-07-31T07:37:20;99813.84;;;17.02;80.55
70833;BME280;71099;59.528;17.886;2023-07-31T07:39:46;99813.22;;;17.00;80.36
70833;BME280;71099;59.528;17.886;2023-07-31T07:42:11;99813.41;;;17.05;80.48
70833;BME280;71099;59.528;17.886;2023-07-31T07:44:36;99812.41;;;17.06;80.05
70833;BME280;71099;59.528;17.886;2023-07-31T07:47:02;99819.44;;;17.05;79.63
70833;BME280;71099;59.528;17.886;2023-07-31T07:49:28;99823.25;;;16.96;79.27
70833;BME280;71099;59.528;17.886;2023-07-31T07:51:53;99833.50;;;16.98;78.19
70833;BME280;71099;59.528;17.886;2023-07-31T07:54:19;99825.28;;;16.88;77.70
70833;BME280;71099;59.528;17.886;2023-07-31T07:56:47;99816.91;;;16.73;77.36
70833;BME280;71099;59.528;17.886;2023-07-31T07:59:13;99817.91;;;16.72;78.07
70833;BME280;71099;59.528;17.886;2023-07-31T08:01:38;99825.34;;;16.68;78.34
70833;BME280;71099;59.528;17.886;2023-07-31T08:04:03;99832.13;;;16.76;78.90
70833;BME280;71099;59.528;17.886;2023-07-31T08:06:29;99830.13;;;16.78;79.73
70833;BME280;71099;59.528;17.886;2023-07-31T08:08:55;99836.53;;;16.82;80.15
70833;BME280;71099;59.528;17.886;2023-07-31T08:11:21;99826.09;;;16.82;80.39
70833;BME280;71099;59.528;17.886;2023-07-31T08:13:49;99821.72;;;16.76;80.60
70833;BME280;71099;59.528;17.886;2023-07-31T08:16:14;99814.91;;;16.75;81.23
70833;BME280;71099;59.528;17.886;2023-07-31T08:18:39;99810.91;;;16.66;82.01
70833;BME280;71099;59.528;17.886;2023-07-31T08:21:05;99825.34;;;16.62;82.23
70833;BME280;71099;59.528;17.886;2023-07-31T08:23:31;99821.34;;;16.66;82.43
70833;BME280;71099;59.528;17.886;2023-07-31T08:25:56;99818.72;;;16.59;83.16
70833;BME280;71099;59.528;17.886;2023-07-31T08:28:22;99811.31;;;16.56;83.53
70833;BME280;71099;59.528;17.886;2023-07-31T08:30:47;99812.28;;;16.48;83.83
70833;BME280;71099;59.528;17.886;2023-07-31T08:33:13;99819.13;;;16.23;84.63
70833;BME280;71099;59.528;17.886;2023-07-31T08:35:38;99816.13;;;16.06;85.92
70833;BME280;71099;59.528;17.886;2023-07-31T08:38:03;99820.13;;;16.09;85.79
70833;BME280;71099;59.528;17.886;2023-07-31T08:40:29;99811.50;;;16.08;86.20
70833;BME280;71099;59.528;17.886;2023-07-31T08:42:55;99809.31;;;16.12;86.51
70833;BME280;71099;59.528;17.886;2023-07-31T08:45:28;99810.13;;;16.06;86.96
70833;BME280;71099;59.528;17.886;2023-07-31T08:47:55;99823.53;;;16.09;86.95
70833;BME280;71099;59.528;17.886;2023-07-31T08:50:21;99824.75;;;16.13;86.88
70833;BME280;71099;59.528;17.886;2023-07-31T08:52:47;99821.72;;;16.17;86.81
70833;BME280;71099;59.528;17.886;2023-07-31T08:55:14;99807.72;;;16.18;86.66
70833;BME280;71099;59.528;17.886;2023-07-31T08:57:39;99799.09;;;16.17;86.65
70833;BME280;71099;59.528;17.886;2023-07-31T09:00:08;99801.72;;;16.17;86.73
70833;BME280;71099;59.528;17.886;2023-07-31T09:02:46;99794.69;;;16.18;86.50
70833;BME280;71099;59.528;17.886;2023-07-31T09:05:14;99794.69;;;16.11;86.35
70833;BME280;71099;59.528;17.886;2023-07-31T09:07:40;99789.88;;;16.01;86.06
70833;BME280;71099;59.528;17.886;2023-07-31T09:10:11;99798.09;;;15.92;86.62
70833;BME280;71099;59.528;17.886;2023-07-31T09:12:37;99786.06;;;15.84;87.24
70833;BME280;71099;59.528;17.886;2023-07-31T09:15:04;99786.03;;;15.78;87.51
70833;BME280;71099;59.528;17.886;2023-07-31T09:17:34;99782.84;;;15.76;87.69
70833;BME280;71099;59.528;17.886;2023-07-31T09:20:16;99770.44;;;15.78;87.65
70833;BME280;71099;59.528;17.886;2023-07-31T09:22:43;99778.06;;;15.73;87.48
70833;BME280;71099;59.528;17.886;2023-07-31T09:25:21;99778.25;;;15.78;87.17
70833;BME280;71099;59.528;17.886;2023-07-31T09:27:54;99779.25;;;15.77;87.14
70833;BME280;71099;59.528;17.886;2023-07-31T09:30:20;99769.25;;;15.74;87.25
70833;BME280;71099;59.528;17.886;2023-07-31T09:32:47;99769.22;;;15.60;87.54
70833;BME280;71099;59.528;17.886;2023-07-31T09:35:29;99768.63;;;15.52;88.36
70833;BME280;71099;59.528;17.886;2023-07-31T09:37:58;99751.97;;;15.46;90.04
70833;BME280;71099;59.528;17.886;2023-07-31T09:40:32;99757.16;;;15.46;90.83
70833;BME280;71099;59.528;17.886;2023-07-31T09:43:03;99757.00;;;15.54;89.98
70833;BME280;71099;59.528;17.886;2023-07-31T09:45:29;99768.03;;;15.70;89.99
70833;BME280;71099;59.528;17.886;2023-07-31T09:47:56;99774.47;;;15.87;89.84
70833;BME280;71099;59.528;17.886;2023-07-31T09:50:23;99774.06;;;16.03;89.93
70833;BME280;71099;59.528;17.886;2023-07-31T09:52:50;99768.88;;;16.09;90.40
70833;BME280;71099;59.528;17.886;2023-07-31T09:55:15;99768.06;;;16.09;88.68
70833;BME280;71099;59.528;17.886;2023-07-31T09:57:43;99772.84;;;16.19;88.14
70833;BME280;71099;59.528;17.886;2023-07-31T10:00:10;99771.66;;;16.28;88.50
70833;BME280;71099;59.528;17.886;2023-07-31T10:02:37;99776.81;;;16.47;89.09
70833;BME280;71099;59.528;17.886;2023-07-31T10:05:04;99778.03;;;16.65;88.11
70833;BME280;71099;59.528;17.886;2023-07-31T10:07:31;99772.44;;;16.61;84.23
70833;BME280;71099;59.528;17.886;2023-07-31T10:10:00;99776.00;;;16.80;84.33
70833;BME280;71099;59.528;17.886;2023-07-31T10:12:27;99772.66;;;17.10;84.57
70833;BME280;71099;59.528;17.886;2023-07-31T10:14:56;99765.34;;;17.32;82.51
70833;BME280;71099;59.528;17.886;2023-07-31T10:17:22;99766.03;;;17.59;81.53
70833;BME280;71099;59.528;17.886;2023-07-31T10:19:49;99752.78;;;17.61;77.00
70833;BME280;71099;59.528;17.886;2023-07-31T10:22:15;99752.78;;;17.61;77.54
70833;BME280;71099;59.528;17.886;2023-07-31T10:24:45;99755.03;;;17.82;78.72
70833;BME280;71099;59.528;17.886;2023-07-31T10:27:11;99750.78;;;18.12;79.70
70833;BME280;71099;59.528;17.886;2023-07-31T10:29:38;99763.38;;;18.40;81.60
70833;BME280;71099;59.528;17.886;2023-07-31T10:32:05;99758.84;;;18.53;79.29
70833;BME280;71099;59.528;17.886;2023-07-31T10:34:34;99762.78;;;18.63;77.03
70833;BME280;71099;59.528;17.886;2023-07-31T10:37:27;99767.78;;;18.82;76.99
70833;BME280;71099;59.528;17.886;2023-07-31T10:39:56;99768.53;;;18.89;74.11
70833;BME280;71099;59.528;17.886;2023-07-31T10:42:28;99770.47;;;18.94;72.91
70833;BME280;71099;59.528;17.886;2023-07-31T10:45:13;99766.53;;;19.03;73.37
70833;BME280;71099;59.528;17.886;2023-07-31T10:47:42;99766.03;;;18.94;72.11
70833;BME280;71099;59.528;17.886;2023-07-31T10:50:19;99758.78;;;18.96;72.21
70833;BME280;71099;59.528;17.886;2023-07-31T10:52:47;99764.75;;;18.85;72.02
70833;BME280;71099;59.528;17.886;2023-07-31T10:57:46;99757.47;;;18.87;73.48
70833;BME280;71099;59.528;17.886;2023-07-31T11:03:18;99755.00;;;18.92;73.85
70833;BME280;71099;59.528;17.886;2023-07-31T11:05:59;99764.31;;;18.88;73.62
70833;BME280;71099;59.528;17.886;2023-07-31T11:08:28;99769.63;;;18.82;72.46
70833;BME280;71099;59.528;17.886;2023-07-31T11:13:52;99772.50;;;18.74;71.64
70833;BME280;71099;59.528;17.886;2023-07-31T11:16:19;99774.25;;;18.80;71.59
70833;BME280;71099;59.528;17.886;2023-07-31T11:18:46;99788.03;;;18.87;72.18
70833;BME280;71099;59.528;17.886;2023-07-31T11:21:20;99785.72;;;18.97;72.43
70833;BME280;71099;59.528;17.886;2023-07-31T11:23:47;99788.84;;;19.06;72.69
70833;BME280;71099;59.528;17.886;2023-07-31T11:26:13;99793.69;;;19.02;71.77
70833;BME280;71099;59.528;17.886;2023-07-31T11:28:38;99791.69;;;19.04;71.68
70833;BME280;71099;59.528;17.886;2023-07-31T11:31:04;99792.81;;;19.08;72.63
70833;BME280;71099;59.528;17.886;2023-07-31T11:33:30;99801.41;;;18.97;72.41
70833;BME280;71099;59.528;17.886;2023-07-31T11:35:56;99798.72;;;18.85;71.89
70833;BME280;71099;59.528;17.886;2023-07-31T11:38:29;99807.50;;;18.91;72.19
70833;BME280;71099;59.528;17.886;2023-07-31T11:41:02;99802.44;;;18.96;73.17
70833;BME280;71099;59.528;17.886;2023-07-31T11:43:28;99807.78;;;19.01;72.96
70833;BME280;71099;59.528;17.886;2023-07-31T11:45:55;99802.16;;;19.04;73.80
70833;BME280;71099;59.528;17.886;2023-07-31T11:48:31;99808.09;;;19.11;74.09
70833;BME280;71099;59.528;17.886;2023-07-31T11:51:05;99806.50;;;19.10;73.79
70833;BME280;71099;59.528;17.886;2023-07-31T11:53:35;99806.13;;;19.07;74.43
70833;BME280;71099;59.528;17.886;2023-07-31T11:56:02;99811.38;;;19.07;74.13
70833;BME280;71099;59.528;17.886;2023-07-31T11:58:31;99807.38;;;19.04;74.46
70833;BME280;71099;59.528;17.886;2023-07-31T12:00:57;99815.06;;;18.99;74.77
70833;BME280;71099;59.528;17.886;2023-07-31T12:03:23;99810.41;;;19.01;75.05
70833;BME280;71099;59.528;17.886;2023-07-31T12:05:49;99811.00;;;19.03;75.62
70833;BME280;71099;59.528;17.886;2023-07-31T12:08:14;99803.34;;;19.01;75.93
70833;BME280;71099;59.528;17.886;2023-07-31T12:10:41;99804.97;;;19.02;75.90
70833;BME280;71099;59.528;17.886;2023-07-31T12:13:11;99803.72;;;19.05;76.29
70833;BME280;71099;59.528;17.886;2023-07-31T12:15:41;99805.53;;;19.04;76.02
70833;BME280;71099;59.528;17.886;2023-07-31T12:18:09;99802.16;;;19.04;75.94
70833;BME280;71099;59.528;17.886;2023-07-31T12:20:43;99796.13;;;19.03;75.87
70833;BME280;71099;59.528;17.886;2023-07-31T12:23:22;99798.38;;;19.00;76.72
70833;BME280;71099;59.528;17.886;2023-07-31T12:26:12;99790.16;;;18.96;76.40
70833;BME280;71099;59.528;17.886;2023-07-31T12:31:10;99800.25;;;18.93;75.72
70833;BME280;71099;59.528;17.886;2023-07-31T12:33:37;99793.50;;;18.85;75.59
70833;BME280;71099;59.528;17.886;2023-07-31T12:36:07;99799.94;;;18.83;76.03
70833;BME280;71099;59.528;17.886;2023-07-31T12:38:33;99796.53;;;18.82;75.57
70833;BME280;71099;59.528;17.886;2023-07-31T12:40:58;99799.16;;;18.82;75.65
70833;BME280;71099;59.528;17.886;2023-07-31T12:43:24;99797.56;;;18.81;75.54
70833;BME280;71099;59.528;17.886;2023-07-31T12:45:49;99800.38;;;18.80;76.31
70833;BME280;71099;59.528;17.886;2023-07-31T12:48:15;99794.78;;;18.76;76.83
70833;BME280;71099;59.528;17.886;2023-07-31T12:50:40;99794.44;;;18.73;76.39
70833;BME280;71099;59.528;17.886;2023-07-31T12:53:06;99793.88;;;18.71;76.06
70833;BME280;71099;59.528;17.886;2023-07-31T12:55:32;99796.88;;;18.68;76.34
70833;BME280;71099;59.528;17.886;2023-07-31T12:58:02;99793.25;;;18.69;76.37
70833;BME280;71099;59.528;17.886;2023-07-31T13:00:28;99788.47;;;18.66;75.94
70833;BME280;71099;59.528;17.886;2023-07-31T13:02:53;99784.84;;;18.67;75.65
70833;BME280;71099;59.528;17.886;2023-07-31T13:05:19;99780.78;;;18.71;75.22